createdAt,value
2022-12-29T00:00:28.415Z,6.6
2022-12-29T00:01:32.246Z,6.7
2022-12-29T00:02:37.042Z,6.7
2022-12-29T00:03:41.797Z,6.7
2022-12-29T00:04:45.200Z,6.7
2022-12-29T00:05:47.792Z,6.7
2022-12-29T00:06:51.081Z,6.7
2022-12-29T00:07:54.139Z,6.7
2022-12-29T00:08:57.223Z,6.7
2022-12-29T00:10:01.071Z,6.7
2022-12-29T00:11:04.524Z,6.7
2022-12-29T00:12:08.077Z,6.7
2022-12-29T00:13:11.155Z,6.7
2022-12-29T00:14:14.899Z,6.7
2022-12-29T00:15:19.776Z,6.8
2022-12-29T00:16:23.272Z,6.8
2022-12-29T00:17:27.472Z,6.8
2022-12-29T00:18:30.984Z,6.8
2022-12-29T00:19:35.714Z,6.7
2022-12-29T00:20:38.733Z,6.8
2022-12-29T00:21:42.519Z,6.8
2022-12-29T00:22:46.277Z,6.8
2022-12-29T00:23:49.731Z,6.8
2022-12-29T00:24:52.824Z,6.8
2022-12-29T00:25:55.826Z,6.8
2022-12-29T00:26:58.876Z,6.9
2022-12-29T00:28:08.814Z,6.9
2022-12-29T00:29:11.567Z,6.8
2022-12-29T00:30:15.768Z,6.9
2022-12-29T00:31:20.384Z,6.9
2022-12-29T00:32:23.518Z,6.8
2022-12-29T00:33:26.337Z,6.9
2022-12-29T00:34:30.190Z,6.8
2022-12-29T00:35:33.592Z,6.9
2022-12-29T00:36:37.170Z,6.9
2022-12-29T00:37:40.387Z,6.9
2022-12-29T00:38:43.187Z,6.9
2022-12-29T00:39:46.290Z,6.9
2022-12-29T00:40:49.740Z,6.9
2022-12-29T00:41:52.550Z,6.9
2022-12-29T00:42:55.647Z,6.9
2022-12-29T00:43:58.827Z,6.9
2022-12-29T00:45:01.652Z,6.9
2022-12-29T00:46:04.623Z,6.9
2022-12-29T00:47:08.887Z,7
2022-12-29T00:48:11.960Z,7
2022-12-29T00:49:15.596Z,7
2022-12-29T00:50:20.818Z,7
2022-12-29T00:51:23.993Z,7
2022-12-29T00:52:26.962Z,7
2022-12-29T00:53:30.069Z,7.1
2022-12-29T00:54:33.360Z,7.1
2022-12-29T00:55:37.122Z,7.1
2022-12-29T00:56:40.839Z,7.1
2022-12-29T00:57:44.581Z,7.1
2022-12-29T00:58:47.396Z,7.1
2022-12-29T00:59:50.274Z,7.1
2022-12-29T01:00:53.936Z,7.1
2022-12-29T01:01:58.199Z,7.1
2022-12-29T01:03:02.949Z,7.1
2022-12-29T01:04:06.714Z,7.2
2022-12-29T01:05:10.853Z,7.1
2022-12-29T01:06:15.644Z,7.1
2022-12-29T01:07:20.298Z,7.1
2022-12-29T01:08:23.026Z,7.1
2022-12-29T01:09:26.323Z,7.2
2022-12-29T01:10:29.521Z,7.2
2022-12-29T01:11:32.333Z,7.2
2022-12-29T01:12:35.083Z,7.2
2022-12-29T01:13:37.926Z,7.2
2022-12-29T01:14:40.410Z,7.2
2022-12-29T01:15:43.750Z,7.2
2022-12-29T01:16:47.704Z,7.2
2022-12-29T01:17:51.538Z,7.2
2022-12-29T01:18:55.307Z,7.3
2022-12-29T01:19:58.446Z,7.3
2022-12-29T01:21:02.205Z,7.3
2022-12-29T01:22:05.247Z,7.3
2022-12-29T01:23:09.197Z,7.3
2022-12-29T01:24:12.603Z,7.4
2022-12-29T01:25:15.737Z,7.3
2022-12-29T01:26:19.559Z,7.3
2022-12-29T01:27:22.336Z,7.3
2022-12-29T01:28:28.229Z,7.3
2022-12-29T01:29:31.326Z,7.3
2022-12-29T01:30:35.124Z,7.3
2022-12-29T01:31:39.110Z,7.3
2022-12-29T01:32:42.579Z,7.4
2022-12-29T01:33:45.359Z,7.4
2022-12-29T01:34:49.108Z,7.4
2022-12-29T01:35:52.198Z,7.4
2022-12-29T01:36:55.305Z,7.4
2022-12-29T01:37:57.933Z,7.3
2022-12-29T01:39:01.067Z,7.4
2022-12-29T01:40:03.831Z,7.4
2022-12-29T01:41:08.361Z,7.4
2022-12-29T01:42:11.386Z,7.4
2022-12-29T01:43:15.473Z,7.4
2022-12-29T01:44:19.069Z,7.4
2022-12-29T01:45:22.111Z,7.4
2022-12-29T01:46:25.276Z,7.4
2022-12-29T01:47:28.352Z,7.4
2022-12-29T01:48:31.363Z,7.4
2022-12-29T01:49:33.913Z,7.4
2022-12-29T01:50:37.307Z,7.4
2022-12-29T01:51:39.758Z,7.4
2022-12-29T01:52:42.627Z,7.4
2022-12-29T01:53:45.922Z,7.4
2022-12-29T01:54:49.448Z,7.4
2022-12-29T01:55:52.306Z,7.5
2022-12-29T01:56:55.396Z,7.4
2022-12-29T01:57:57.883Z,7.5
2022-12-29T01:59:00.998Z,7.5
2022-12-29T02:00:04.181Z,7.5
2022-12-29T02:01:09.011Z,7.5
2022-12-29T02:02:12.565Z,7.5
2022-12-29T02:03:16.202Z,7.5
2022-12-29T02:04:19.415Z,7.5
2022-12-29T02:05:22.831Z,7.5
2022-12-29T02:06:26.601Z,7.5
2022-12-29T02:07:28.626Z,7.6
2022-12-29T02:08:32.661Z,7.6
2022-12-29T02:09:36.043Z,7.5
2022-12-29T02:10:39.126Z,7.5
2022-12-29T02:11:41.640Z,7.5
2022-12-29T02:12:44.750Z,7.5
2022-12-29T02:13:48.109Z,7.5
2022-12-29T02:14:50.003Z,7.6
2022-12-29T02:15:53.385Z,7.5
2022-12-29T02:16:56.767Z,7.5
2022-12-29T02:18:00.631Z,7.5
2022-12-29T02:19:03.672Z,7.5
2022-12-29T02:20:06.539Z,7.5
2022-12-29T02:21:10.183Z,7.5
2022-12-29T02:22:14.868Z,7.5
2022-12-29T02:23:19.535Z,7.5
2022-12-29T02:24:22.638Z,7.5
2022-12-29T02:25:26.145Z,7.5
2022-12-29T02:26:29.998Z,7.5
2022-12-29T02:27:33.084Z,7.4
2022-12-29T02:28:35.818Z,7.5
2022-12-29T02:29:38.672Z,7.4
2022-12-29T02:30:42.024Z,7.5
2022-12-29T02:31:46.174Z,7.5
2022-12-29T02:32:49.297Z,7.5
2022-12-29T02:33:52.382Z,7.5
2022-12-29T02:34:55.491Z,7.5
2022-12-29T02:35:58.295Z,7.4
2022-12-29T02:37:01.160Z,7.4
2022-12-29T02:38:04.284Z,7.4
2022-12-29T02:39:08.287Z,7.4
2022-12-29T02:40:11.871Z,7.4
2022-12-29T02:41:16.179Z,7.4
2022-12-29T02:42:21.728Z,7.4
2022-12-29T02:43:24.530Z,7.4
2022-12-29T02:44:27.966Z,7.4
2022-12-29T02:45:30.512Z,7.4
2022-12-29T02:46:34.790Z,7.3
2022-12-29T02:47:38.080Z,7.4
2022-12-29T02:48:40.993Z,7.4
2022-12-29T02:49:44.093Z,7.4
2022-12-29T02:50:47.201Z,7.4
2022-12-29T02:51:49.380Z,7.4
2022-12-29T02:52:52.135Z,7.4
2022-12-29T02:53:54.678Z,7.4
2022-12-29T02:54:57.189Z,7.4
2022-12-29T02:55:59.711Z,7.3
2022-12-29T02:57:02.710Z,7.3
2022-12-29T02:58:06.418Z,7.4
2022-12-29T02:59:10.192Z,7.4
2022-12-29T03:00:13.514Z,7.4
2022-12-29T03:01:19.045Z,7.4
2022-12-29T03:02:23.507Z,7.4
2022-12-29T03:03:27.295Z,7.4
2022-12-29T03:04:30.379Z,7.4
2022-12-29T03:05:34.186Z,7.4
2022-12-29T03:06:37.226Z,7.4
2022-12-29T03:07:39.741Z,7.4
2022-12-29T03:08:43.324Z,7.4
2022-12-29T03:09:45.938Z,7.4
2022-12-29T03:10:48.453Z,7.4
2022-12-29T03:11:52.470Z,7.5
2022-12-29T03:12:55.318Z,7.4
2022-12-29T03:13:58.667Z,7.5
2022-12-29T03:15:02.078Z,7.5
2022-12-29T03:16:05.213Z,7.4
2022-12-29T03:17:09.287Z,7.4
2022-12-29T03:18:12.780Z,7.5
2022-12-29T03:19:16.210Z,7.4
2022-12-29T03:20:22.209Z,7.5
2022-12-29T03:21:26.216Z,7.4
2022-12-29T03:22:28.871Z,7.4
2022-12-29T03:23:32.083Z,7.5
2022-12-29T03:24:36.216Z,7.5
2022-12-29T03:25:39.660Z,7.5
2022-12-29T03:26:42.256Z,7.5
2022-12-29T03:27:46.000Z,7.5
2022-12-29T03:28:48.829Z,7.5
2022-12-29T03:29:51.875Z,7.5
2022-12-29T03:30:55.370Z,7.5
2022-12-29T03:31:57.962Z,7.5
2022-12-29T03:33:00.794Z,7.5
2022-12-29T03:34:03.909Z,7.6
2022-12-29T03:35:08.105Z,7.6
2022-12-29T03:36:10.919Z,7.6
2022-12-29T03:37:14.739Z,7.6
2022-12-29T03:38:20.069Z,7.6
2022-12-29T03:39:23.528Z,7.5
2022-12-29T03:40:26.415Z,7.5
2022-12-29T03:41:29.239Z,7.6
2022-12-29T03:42:31.979Z,7.6
2022-12-29T03:43:35.896Z,7.6
2022-12-29T03:44:39.067Z,7.6
2022-12-29T03:45:42.766Z,7.6
2022-12-29T03:46:45.523Z,7.6
2022-12-29T03:47:48.582Z,7.6
2022-12-29T03:48:52.056Z,7.6
2022-12-29T03:49:55.396Z,7.6
2022-12-29T03:50:57.643Z,7.6
2022-12-29T03:52:00.206Z,7.6
2022-12-29T03:53:03.653Z,7.6
2022-12-29T03:54:06.696Z,7.6
2022-12-29T03:55:10.198Z,7.7
2022-12-29T03:56:13.566Z,7.7
2022-12-29T03:57:18.144Z,7.7
2022-12-29T03:58:21.694Z,7.7
2022-12-29T03:59:25.213Z,7.7
2022-12-29T04:00:28.717Z,7.7
2022-12-29T04:01:32.661Z,7.7
2022-12-29T04:02:36.955Z,7.7
2022-12-29T04:03:41.162Z,7.8
2022-12-29T04:04:44.511Z,7.8
2022-12-29T04:05:47.530Z,7.8
2022-12-29T04:06:50.403Z,7.7
2022-12-29T04:07:53.818Z,7.7
2022-12-29T04:08:57.534Z,7.8
2022-12-29T04:10:00.699Z,7.8
2022-12-29T04:11:03.946Z,7.8
2022-12-29T04:12:07.803Z,7.9
2022-12-29T04:13:10.421Z,7.9
2022-12-29T04:14:14.939Z,7.9
2022-12-29T04:15:19.924Z,7.9
2022-12-29T04:16:23.800Z,7.9
2022-12-29T04:17:27.309Z,7.9
2022-12-29T04:18:31.049Z,7.9
2022-12-29T04:19:34.749Z,7.9
2022-12-29T04:20:37.805Z,7.9
2022-12-29T04:21:40.545Z,8
2022-12-29T04:22:43.898Z,8
2022-12-29T04:23:46.653Z,8
2022-12-29T04:24:49.386Z,8.1
2022-12-29T04:25:52.598Z,8.1
2022-12-29T04:26:55.962Z,8.1
2022-12-29T04:27:59.125Z,8.1
2022-12-29T04:29:02.620Z,8.1
2022-12-29T04:30:05.615Z,8.1
2022-12-29T04:31:09.636Z,8.1
2022-12-29T04:32:12.372Z,8.1
2022-12-29T04:33:18.867Z,8.1
2022-12-29T04:34:22.149Z,8.2
2022-12-29T04:35:24.875Z,8.2
2022-12-29T04:36:31.898Z,8.2
2022-12-29T04:37:35.992Z,8.2
2022-12-29T04:38:39.368Z,8.2
2022-12-29T04:39:42.297Z,8.2
2022-12-29T04:40:45.699Z,8.2
2022-12-29T04:41:48.908Z,8.3
2022-12-29T04:42:52.940Z,8.3
2022-12-29T04:43:56.201Z,8.3
2022-12-29T04:44:59.014Z,8.3
2022-12-29T04:46:03.218Z,8.3
2022-12-29T04:47:06.397Z,8.3
2022-12-29T04:48:10.428Z,8.3
2022-12-29T04:49:15.247Z,8.4
2022-12-29T04:50:19.855Z,8.3
2022-12-29T04:51:23.247Z,8.4
2022-12-29T04:52:26.233Z,8.4
2022-12-29T04:53:29.069Z,8.4
2022-12-29T04:54:31.913Z,8.4
2022-12-29T04:55:35.855Z,8.4
2022-12-29T04:56:39.575Z,8.4
2022-12-29T04:57:42.631Z,8.4
2022-12-29T04:58:45.636Z,8.5
2022-12-29T04:59:48.754Z,8.5
2022-12-29T05:00:51.892Z,8.5
2022-12-29T05:01:55.786Z,8.5
2022-12-29T05:03:00.080Z,8.5
2022-12-29T05:04:03.821Z,8.5
2022-12-29T05:05:08.345Z,8.5
2022-12-29T05:06:11.843Z,8.5
2022-12-29T05:07:15.208Z,8.5
2022-12-29T05:08:28.740Z,8.5
2022-12-29T05:09:32.181Z,8.5
2022-12-29T05:10:35.910Z,8.5
2022-12-29T05:11:38.751Z,8.5
2022-12-29T05:12:42.463Z,8.5
2022-12-29T05:13:45.059Z,8.5
2022-12-29T05:14:48.782Z,8.5
2022-12-29T05:15:51.863Z,8.5
2022-12-29T05:16:55.328Z,8.5
2022-12-29T05:17:59.095Z,8.5
2022-12-29T05:19:02.956Z,8.5
2022-12-29T05:20:06.011Z,8.5
2022-12-29T05:21:09.063Z,8.5
2022-12-29T05:22:12.438Z,8.5
2022-12-29T05:23:15.297Z,8.5
2022-12-29T05:24:19.653Z,8.5
2022-12-29T05:25:23.321Z,8.5
2022-12-29T05:26:26.613Z,8.5
2022-12-29T05:27:29.553Z,8.5
2022-12-29T05:28:34.097Z,8.5
2022-12-29T05:29:37.089Z,8.5
2022-12-29T05:30:39.941Z,8.5
2022-12-29T05:31:43.721Z,8.6
2022-12-29T05:32:47.520Z,8.6
2022-12-29T05:33:50.835Z,8.5
2022-12-29T05:34:53.821Z,8.6
2022-12-29T05:35:57.397Z,8.5
2022-12-29T05:37:00.501Z,8.5
2022-12-29T05:38:03.369Z,8.6
2022-12-29T05:39:05.882Z,8.6
2022-12-29T05:40:09.521Z,8.6
2022-12-29T05:41:12.796Z,8.6
2022-12-29T05:42:16.287Z,8.5
2022-12-29T05:43:22.006Z,8.5
2022-12-29T05:44:24.831Z,8.4
2022-12-29T05:45:27.860Z,8.4
2022-12-29T05:46:31.199Z,8.4
2022-12-29T05:47:34.743Z,8.5
2022-12-29T05:48:40.041Z,8.4
2022-12-29T05:49:42.870Z,8.5
2022-12-29T05:50:46.351Z,8.4
2022-12-29T05:51:48.569Z,8.4
2022-12-29T05:52:51.677Z,8.4
2022-12-29T05:53:54.760Z,8.4
2022-12-29T05:54:58.258Z,8.4
2022-12-29T05:56:01.301Z,8.4
2022-12-29T05:57:04.573Z,8.5
2022-12-29T05:58:08.599Z,8.5
2022-12-29T05:59:11.384Z,8.4
2022-12-29T06:00:14.406Z,8.4
2022-12-29T06:01:19.229Z,8.5
2022-12-29T06:02:23.960Z,8.5
2022-12-29T06:03:30.028Z,8.4
2022-12-29T06:04:34.534Z,8.4
2022-12-29T06:05:37.928Z,8.4
2022-12-29T06:06:41.648Z,8.4
2022-12-29T06:07:45.399Z,8.4
2022-12-29T06:08:49.434Z,8.5
2022-12-29T06:09:52.030Z,8.4
2022-12-29T06:10:55.804Z,8.4
2022-12-29T06:11:59.327Z,8.5
2022-12-29T06:13:01.788Z,8.4
2022-12-29T06:14:05.144Z,8.4
2022-12-29T06:15:08.825Z,8.4
2022-12-29T06:16:12.398Z,8.5
2022-12-29T06:17:15.462Z,8.4
2022-12-29T06:18:22.423Z,8.5
2022-12-29T06:19:24.906Z,8.5
2022-12-29T06:20:28.302Z,8.5
2022-12-29T06:21:30.851Z,8.5
2022-12-29T06:22:34.319Z,8.5
2022-12-29T06:23:37.459Z,8.5
2022-12-29T06:24:41.553Z,8.5
2022-12-29T06:25:44.340Z,8.5
2022-12-29T06:26:47.833Z,8.5
2022-12-29T06:27:50.553Z,8.5
2022-12-29T06:28:54.275Z,8.5
2022-12-29T06:29:57.175Z,8.5
2022-12-29T06:30:59.934Z,8.6
2022-12-29T06:32:03.242Z,8.5
2022-12-29T06:33:06.485Z,8.5
2022-12-29T06:34:10.390Z,8.5
2022-12-29T06:35:13.243Z,8.6
2022-12-29T06:36:18.936Z,8.6
2022-12-29T06:37:22.546Z,8.6
2022-12-29T06:38:26.272Z,8.5
2022-12-29T06:39:29.353Z,8.6
2022-12-29T06:40:32.725Z,8.6
2022-12-29T06:41:36.080Z,8.6
2022-12-29T06:42:39.619Z,8.6
2022-12-29T06:43:42.980Z,8.5
2022-12-29T06:44:45.792Z,8.6
2022-12-29T06:45:49.590Z,8.5
2022-12-29T06:46:52.445Z,8.6
2022-12-29T06:47:55.826Z,8.6
2022-12-29T06:48:59.495Z,8.6
2022-12-29T06:50:02.598Z,8.6
2022-12-29T06:51:05.793Z,8.6
2022-12-29T06:52:15.576Z,8.6
2022-12-29T06:53:18.942Z,8.6
2022-12-29T06:54:21.754Z,8.6
2022-12-29T06:55:25.230Z,8.6
2022-12-29T06:56:28.995Z,8.6
2022-12-29T06:57:32.019Z,8.6
2022-12-29T06:58:35.084Z,8.6
2022-12-29T06:59:38.189Z,8.6
2022-12-29T07:00:41.882Z,8.6
2022-12-29T07:01:45.592Z,8.6
2022-12-29T07:02:50.068Z,8.6
2022-12-29T07:03:53.985Z,8.6
2022-12-29T07:04:57.614Z,8.6
2022-12-29T07:06:00.505Z,8.7
2022-12-29T07:07:03.703Z,8.7
2022-12-29T07:08:07.715Z,8.7
2022-12-29T07:09:11.090Z,8.7
2022-12-29T07:10:14.513Z,8.7
2022-12-29T07:11:18.693Z,8.8
2022-12-29T07:12:22.083Z,8.7
2022-12-29T07:13:25.154Z,8.7
2022-12-29T07:14:28.045Z,8.8
2022-12-29T07:15:31.537Z,8.8
2022-12-29T07:16:36.222Z,8.8
2022-12-29T07:17:39.720Z,8.8
2022-12-29T07:18:42.202Z,8.8
2022-12-29T07:19:44.994Z,8.8
2022-12-29T07:20:48.233Z,8.8
2022-12-29T07:21:51.324Z,8.8
2022-12-29T07:22:54.831Z,8.8
2022-12-29T07:23:58.728Z,8.8
2022-12-29T07:25:02.140Z,8.9
2022-12-29T07:26:05.031Z,8.9
2022-12-29T07:27:08.655Z,8.8
2022-12-29T07:28:12.096Z,8.8
2022-12-29T07:29:15.218Z,8.8
2022-12-29T07:30:18.754Z,8.8
2022-12-29T07:31:22.220Z,8.8
2022-12-29T07:32:25.436Z,8.8
2022-12-29T07:33:28.939Z,8.8
2022-12-29T07:34:31.703Z,8.8
2022-12-29T07:35:35.163Z,8.7
2022-12-29T07:36:37.949Z,8.7
2022-12-29T07:37:41.076Z,8.7
2022-12-29T07:38:43.441Z,8.7
2022-12-29T07:39:46.662Z,8.7
2022-12-29T07:40:50.181Z,8.7
2022-12-29T07:41:54.695Z,8.6
2022-12-29T07:43:07.861Z,8.7
2022-12-29T07:44:11.627Z,8.6
2022-12-29T07:45:15.658Z,8.6
2022-12-29T07:47:02.611Z,8.6
2022-12-29T07:48:05.833Z,8.6
2022-12-29T07:49:09.188Z,8.6
2022-12-29T07:50:12.051Z,8.6
2022-12-29T07:51:15.229Z,8.6
2022-12-29T07:52:18.866Z,8.6
2022-12-29T07:53:21.323Z,8.6
2022-12-29T07:54:24.681Z,8.6
2022-12-29T07:55:28.523Z,8.7
2022-12-29T07:56:30.946Z,8.7
2022-12-29T07:57:34.049Z,8.7
2022-12-29T07:58:37.508Z,8.8
2022-12-29T07:59:40.324Z,8.8
2022-12-29T08:00:43.458Z,8.8
2022-12-29T08:01:47.732Z,8.8
2022-12-29T08:02:51.393Z,8.9
2022-12-29T08:03:59.456Z,8.9
2022-12-29T08:05:02.761Z,8.9
2022-12-29T08:06:05.624Z,8.9
2022-12-29T08:07:08.969Z,8.9
2022-12-29T08:08:11.957Z,8.9
2022-12-29T08:09:25.740Z,8.9
2022-12-29T08:10:29.073Z,9
2022-12-29T08:11:32.850Z,9
2022-12-29T08:12:36.157Z,9.1
2022-12-29T08:13:39.611Z,9.1
2022-12-29T08:14:42.931Z,9.1
2022-12-29T08:15:46.040Z,9.1
2022-12-29T08:16:49.439Z,9.1
2022-12-29T08:17:52.185Z,9.1
2022-12-29T08:18:55.883Z,9.1
2022-12-29T08:19:58.962Z,9.1
2022-12-29T08:21:01.823Z,9.1
2022-12-29T08:22:05.174Z,9.1
2022-12-29T08:23:08.959Z,9.1
2022-12-29T08:24:12.862Z,9.1
2022-12-29T08:25:16.307Z,9.1
2022-12-29T08:26:19.326Z,9.1
2022-12-29T08:27:23.755Z,9.1
2022-12-29T08:28:26.859Z,9.1
2022-12-29T08:29:29.679Z,9.1
2022-12-29T08:30:33.388Z,9.1
2022-12-29T08:31:37.565Z,9.1
2022-12-29T08:32:40.764Z,9.1
2022-12-29T08:33:44.084Z,9.1
2022-12-29T08:34:47.492Z,9.1
2022-12-29T08:35:50.506Z,9.1
2022-12-29T08:36:53.256Z,9.1
2022-12-29T08:37:56.428Z,9.1
2022-12-29T08:38:59.852Z,9.1
2022-12-29T08:40:02.927Z,9.1
2022-12-29T08:41:05.983Z,9.1
2022-12-29T08:42:09.094Z,9.1
2022-12-29T08:43:19.305Z,9.1
2022-12-29T08:44:21.555Z,9.1
2022-12-29T08:45:25.715Z,9.1
2022-12-29T08:46:28.769Z,9.1
2022-12-29T08:47:31.723Z,9.1
2022-12-29T08:48:33.932Z,9.1
2022-12-29T08:49:36.406Z,9.1
2022-12-29T08:50:40.041Z,9.1
2022-12-29T08:51:43.696Z,9.1
2022-12-29T08:52:46.859Z,9.1
2022-12-29T08:53:50.318Z,9.1
2022-12-29T08:54:53.492Z,9.1
2022-12-29T08:56:06.906Z,9.1
2022-12-29T08:57:09.977Z,9
2022-12-29T08:58:13.352Z,9.1
2022-12-29T08:59:16.861Z,9.1
2022-12-29T09:00:19.591Z,9.1
2022-12-29T09:01:23.336Z,9
2022-12-29T09:02:29.604Z,9.1
2022-12-29T09:04:19.248Z,9.1
2022-12-29T09:05:23.976Z,9
2022-12-29T09:06:28.025Z,9
2022-12-29T09:07:30.773Z,9.1
2022-12-29T09:08:34.680Z,9
2022-12-29T09:09:37.135Z,9
2022-12-29T09:10:40.306Z,9
2022-12-29T09:11:43.408Z,9
2022-12-29T09:12:46.600Z,9
2022-12-29T09:13:49.464Z,9
2022-12-29T09:14:53.128Z,9
2022-12-29T09:15:56.146Z,9
2022-12-29T09:16:59.636Z,9
2022-12-29T09:18:03.105Z,9
2022-12-29T09:19:06.478Z,9.1
2022-12-29T09:20:09.549Z,9
2022-12-29T09:21:13.187Z,9
2022-12-29T09:22:17.090Z,9
2022-12-29T09:23:19.849Z,8.9
2022-12-29T09:24:22.933Z,8.9
2022-12-29T09:25:25.173Z,9
2022-12-29T09:26:29.476Z,9
2022-12-29T09:27:32.273Z,9
2022-12-29T09:28:35.813Z,9.1
2022-12-29T09:29:38.903Z,9.2
2022-12-29T09:30:42.293Z,9.3
2022-12-29T09:31:45.391Z,9.3
2022-12-29T09:32:57.062Z,9.4
2022-12-29T09:34:00.791Z,9.4
2022-12-29T09:35:04.132Z,9.6
2022-12-29T09:36:07.196Z,9.6
2022-12-29T09:37:10.228Z,9.6
2022-12-29T09:38:13.216Z,9.7
2022-12-29T09:39:15.803Z,9.9
2022-12-29T09:40:17.989Z,9.9
2022-12-29T09:41:21.197Z,10
2022-12-29T09:42:25.318Z,10.1
2022-12-29T09:43:28.828Z,10.1
2022-12-29T09:44:32.019Z,10.1
2022-12-29T09:45:35.459Z,10.2
2022-12-29T09:46:39.014Z,10.3
2022-12-29T09:47:42.188Z,10.4
2022-12-29T09:48:45.864Z,10.4
2022-12-29T09:49:49.669Z,10.4
2022-12-29T09:50:52.780Z,10.6
2022-12-29T09:51:56.960Z,10.7
2022-12-29T09:53:00.621Z,10.9
2022-12-29T09:54:03.427Z,11.1
2022-12-29T09:55:15.882Z,11.4
2022-12-29T09:56:18.885Z,11.4
2022-12-29T09:57:22.639Z,11.6
2022-12-29T09:58:27.348Z,11.7
2022-12-29T09:59:30.487Z,11.9
2022-12-29T10:00:33.425Z,12
2022-12-29T10:01:37.610Z,11.8
2022-12-29T10:02:42.835Z,11.7
2022-12-29T10:03:46.565Z,11.5
2022-12-29T10:04:50.651Z,11.4
2022-12-29T10:05:53.410Z,11.3
2022-12-29T10:07:31.965Z,11.2
2022-12-29T10:08:35.267Z,11.1
2022-12-29T10:09:37.972Z,10.9
2022-12-29T10:10:41.239Z,10.7
2022-12-29T10:11:44.702Z,10.5
2022-12-29T10:12:48.160Z,10.4
2022-12-29T10:13:52.232Z,10.2
2022-12-29T10:14:55.350Z,10.3
2022-12-29T10:15:59.299Z,10.3
2022-12-29T10:17:03.027Z,10.3
2022-12-29T10:18:06.237Z,10.4
2022-12-29T10:19:10.524Z,10.5
2022-12-29T10:20:14.438Z,10.4
2022-12-29T10:21:18.295Z,10.4
2022-12-29T10:22:21.716Z,10.3
2022-12-29T10:23:25.364Z,10.3
2022-12-29T10:24:28.877Z,10.4
2022-12-29T10:25:34.727Z,10.4
2022-12-29T10:26:38.128Z,10.4
2022-12-29T10:27:41.702Z,10.3
2022-12-29T10:28:45.086Z,10.3
2022-12-29T10:29:48.827Z,10.3
2022-12-29T10:30:52.331Z,10.4
2022-12-29T10:31:55.716Z,10.5
2022-12-29T10:32:59.499Z,10.5
2022-12-29T10:34:03.279Z,10.5
2022-12-29T10:35:06.641Z,10.5
2022-12-29T10:36:10.080Z,10.4
2022-12-29T10:37:13.469Z,10.3
2022-12-29T10:38:16.895Z,10.3
2022-12-29T10:39:19.942Z,10.3
2022-12-29T10:40:23.060Z,10.2
2022-12-29T10:41:26.196Z,10.2
2022-12-29T10:42:29.896Z,10.2
2022-12-29T10:43:32.974Z,10.2
2022-12-29T10:44:36.089Z,10.1
2022-12-29T10:45:39.502Z,10.1
2022-12-29T10:46:42.927Z,10.1
2022-12-29T10:47:45.979Z,10.1
2022-12-29T10:48:48.790Z,10.1
2022-12-29T10:49:52.591Z,10
2022-12-29T10:51:03.472Z,10
2022-12-29T10:52:06.660Z,10
2022-12-29T10:53:09.475Z,10
2022-12-29T10:54:13.222Z,10
2022-12-29T10:55:15.976Z,10
2022-12-29T10:56:18.990Z,10
2022-12-29T10:57:22.413Z,10
2022-12-29T10:58:25.809Z,10
2022-12-29T10:59:28.679Z,10
2022-12-29T11:00:31.730Z,9.9
2022-12-29T11:01:36.630Z,9.9
2022-12-29T11:02:40.524Z,9.9
2022-12-29T11:03:43.518Z,9.9
2022-12-29T11:04:47.074Z,9.9
2022-12-29T11:05:50.820Z,9.9
2022-12-29T11:06:53.888Z,9.9
2022-12-29T11:07:57.637Z,9.9
2022-12-29T11:09:01.020Z,9.9
2022-12-29T11:10:04.022Z,9.9
2022-12-29T11:11:07.015Z,9.9
2022-12-29T11:12:10.389Z,9.9
2022-12-29T11:13:13.745Z,9.9
2022-12-29T11:14:17.456Z,9.9
2022-12-29T11:15:20.487Z,9.9
2022-12-29T11:16:24.152Z,9.9
2022-12-29T11:17:27.295Z,9.9
2022-12-29T11:18:30.734Z,9.9
2022-12-29T11:19:42.071Z,9.9
2022-12-29T11:20:45.824Z,9.9
2022-12-29T11:21:48.926Z,9.9
2022-12-29T11:22:52.257Z,9.9
2022-12-29T11:23:55.730Z,9.9
2022-12-29T11:24:59.066Z,9.9
2022-12-29T11:26:02.505Z,10
2022-12-29T11:27:06.507Z,10.1
2022-12-29T11:28:09.526Z,10.1
2022-12-29T11:29:12.334Z,10.2
2022-12-29T11:30:16.159Z,10.2
2022-12-29T11:31:20.665Z,10.1
2022-12-29T11:32:30.634Z,10
2022-12-29T11:33:33.164Z,10
2022-12-29T11:34:36.489Z,10
2022-12-29T11:35:39.269Z,10
2022-12-29T11:36:43.011Z,10
2022-12-29T11:37:46.779Z,10
2022-12-29T11:38:49.327Z,10
2022-12-29T11:39:51.883Z,10.1
2022-12-29T11:40:54.924Z,10.1
2022-12-29T11:41:58.407Z,10.1
2022-12-29T11:43:01.548Z,10.1
2022-12-29T11:44:04.189Z,10.1
2022-12-29T11:45:12.259Z,10.1
2022-12-29T11:46:15.135Z,10.3
2022-12-29T11:47:18.188Z,10.5
2022-12-29T11:48:21.546Z,10.8
2022-12-29T11:49:25.050Z,10.9
2022-12-29T11:50:28.539Z,11.1
2022-12-29T11:51:31.601Z,11
2022-12-29T11:52:34.327Z,10.9
2022-12-29T11:53:38.500Z,10.9
2022-12-29T11:54:41.597Z,10.8
2022-12-29T11:55:44.483Z,10.7
2022-12-29T11:56:47.800Z,10.7
2022-12-29T11:57:50.891Z,10.6
2022-12-29T11:58:54.564Z,10.6
2022-12-29T11:59:58.044Z,10.6
2022-12-29T12:01:01.036Z,10.6
2022-12-29T12:02:05.411Z,10.5
2022-12-29T12:03:09.606Z,10.4
2022-12-29T12:04:13.633Z,10.4
2022-12-29T12:05:16.509Z,10.4
2022-12-29T12:06:19.735Z,10.4
2022-12-29T12:07:23.459Z,10.4
2022-12-29T12:08:26.817Z,10.4
2022-12-29T12:09:30.601Z,10.5
2022-12-29T12:10:33.075Z,10.6
2022-12-29T12:11:36.197Z,10.6
2022-12-29T12:12:39.424Z,10.6
2022-12-29T12:13:42.931Z,10.6
2022-12-29T12:14:46.650Z,10.5
2022-12-29T12:15:58.797Z,10.5
2022-12-29T12:17:03.041Z,10.5
2022-12-29T12:18:05.676Z,10.5
2022-12-29T12:19:08.700Z,10.4
2022-12-29T12:20:12.436Z,10.4
2022-12-29T12:21:15.074Z,10.3
2022-12-29T12:22:17.649Z,10.3
2022-12-29T12:23:21.010Z,10.3
2022-12-29T12:24:24.477Z,10.2
2022-12-29T12:25:28.039Z,10.2
2022-12-29T12:26:30.761Z,10.3
2022-12-29T12:27:33.861Z,10.3
2022-12-29T12:28:39.001Z,10.2
2022-12-29T12:29:42.297Z,10.2
2022-12-29T12:30:46.097Z,10.2
2022-12-29T12:31:48.901Z,10.3
2022-12-29T12:32:52.379Z,10.3
2022-12-29T12:33:55.913Z,10.5
2022-12-29T12:34:59.565Z,10.4
2022-12-29T12:36:03.295Z,10.4
2022-12-29T12:37:06.657Z,10.5
2022-12-29T12:38:10.713Z,10.6
2022-12-29T12:39:14.581Z,10.6
2022-12-29T12:40:17.761Z,10.6
2022-12-29T12:41:25.261Z,10.6
2022-12-29T12:42:28.690Z,10.6
2022-12-29T12:43:32.452Z,10.6
2022-12-29T12:44:35.946Z,10.6
2022-12-29T12:45:38.495Z,10.6
2022-12-29T12:46:42.344Z,10.6
2022-12-29T12:47:46.201Z,10.6
2022-12-29T12:48:49.477Z,10.6
2022-12-29T12:49:52.486Z,10.6
2022-12-29T12:50:55.636Z,10.5
2022-12-29T12:52:07.315Z,10.5
2022-12-29T12:53:10.434Z,10.4
2022-12-29T12:54:14.373Z,10.4
2022-12-29T12:55:17.234Z,10.4
2022-12-29T12:56:20.538Z,10.4
2022-12-29T12:57:24.180Z,10.4
2022-12-29T12:58:27.882Z,10.4
2022-12-29T12:59:31.917Z,10.4
2022-12-29T13:00:35.046Z,10.4
2022-12-29T13:01:39.836Z,10.4
2022-12-29T13:02:44.361Z,10.5
2022-12-29T13:03:47.600Z,10.4
2022-12-29T13:04:50.878Z,10.4
2022-12-29T13:05:53.660Z,10.4
2022-12-29T13:06:56.760Z,10.4
2022-12-29T13:08:00.171Z,10.3
2022-12-29T13:09:03.269Z,10.4
2022-12-29T13:10:06.732Z,10.4
2022-12-29T13:11:10.378Z,10.4
2022-12-29T13:12:13.852Z,10.4
2022-12-29T13:13:17.777Z,10.4
2022-12-29T13:14:20.605Z,10.4
2022-12-29T13:15:24.300Z,10.4
2022-12-29T13:16:27.974Z,10.4
2022-12-29T13:17:31.503Z,10.4
2022-12-29T13:18:34.954Z,10.4
2022-12-29T13:19:38.636Z,10.4
2022-12-29T13:20:41.967Z,10.4
2022-12-29T13:22:07.411Z,10.4
2022-12-29T13:23:10.582Z,10.3
2022-12-29T13:24:13.594Z,10.3
2022-12-29T13:25:17.245Z,10.4
2022-12-29T13:26:20.093Z,10.4
2022-12-29T13:27:23.485Z,10.4
2022-12-29T13:28:27.523Z,10.4
2022-12-29T13:29:31.001Z,10.4
2022-12-29T13:30:34.983Z,10.3
2022-12-29T13:31:39.050Z,10.3
2022-12-29T13:32:42.157Z,10.4
2022-12-29T13:33:45.375Z,10.4
2022-12-29T13:34:49.455Z,10.4
2022-12-29T13:35:52.294Z,10.5
2022-12-29T13:36:56.225Z,10.4
2022-12-29T13:37:59.640Z,10.4
2022-12-29T13:39:02.763Z,10.4
2022-12-29T13:40:06.551Z,10.4
2022-12-29T13:41:10.440Z,10.4
2022-12-29T13:42:13.220Z,10.4
2022-12-29T13:43:16.034Z,10.4
2022-12-29T13:44:20.099Z,10.5
2022-12-29T13:45:22.999Z,10.5
2022-12-29T13:46:26.987Z,10.5
2022-12-29T13:47:30.873Z,10.5
2022-12-29T13:48:34.244Z,10.5
2022-12-29T13:49:37.287Z,10.5
2022-12-29T13:50:40.558Z,10.5
2022-12-29T13:51:44.286Z,10.5
2022-12-29T13:52:46.944Z,10.5
2022-12-29T13:53:50.956Z,10.5
2022-12-29T13:54:54.282Z,10.4
2022-12-29T13:55:58.015Z,10.4
2022-12-29T13:57:00.742Z,10.4
2022-12-29T13:58:03.958Z,10.4
2022-12-29T13:59:07.402Z,10.4
2022-12-29T14:00:10.974Z,10.4
2022-12-29T14:01:14.513Z,10.4
2022-12-29T14:02:19.727Z,10.4
2022-12-29T14:03:33.195Z,10.4
2022-12-29T14:04:37.132Z,10.4
2022-12-29T14:05:40.758Z,10.4
2022-12-29T14:06:44.119Z,10.4
2022-12-29T14:07:47.478Z,10.4
2022-12-29T14:08:50.542Z,10.4
2022-12-29T14:09:53.332Z,10.4
2022-12-29T14:10:56.649Z,10.4
2022-12-29T14:11:59.776Z,10.4
2022-12-29T14:13:02.870Z,10.4
2022-12-29T14:14:05.935Z,10.4
2022-12-29T14:15:09.361Z,10.4
2022-12-29T14:16:12.923Z,10.4
2022-12-29T14:17:17.593Z,10.4
2022-12-29T14:18:21.107Z,10.4
2022-12-29T14:19:24.478Z,10.5
2022-12-29T14:20:27.926Z,10.4
2022-12-29T14:21:32.006Z,10.4
2022-12-29T14:22:35.587Z,10.3
2022-12-29T14:23:39.340Z,10.3
2022-12-29T14:24:42.110Z,10.3
2022-12-29T14:25:45.234Z,10.3
2022-12-29T14:26:48.030Z,10.3
2022-12-29T14:27:51.383Z,10.3
2022-12-29T14:28:56.382Z,10.2
2022-12-29T14:30:07.450Z,10.2
2022-12-29T14:31:10.299Z,10.2
2022-12-29T14:32:13.857Z,10.2